Warren, Rhode Island
Current Conditions -  °F | °C
As of 12:51 AM on Thursday 27 Nov 2014 (Local Time) from KPVD Reporting Station
Light Rain Light Rain  
Wind Chill: 22°   Ceiling: 1600
Heat Index: 34°   Visibility: 7mi
Dew Point: 31°   Wind: 22mph
Humidity: 89%   Direction: 350°N
Pressure: 29.68"   Gusts: 31mph
Location:  41.73°N, 71.28°W
Report Text: KPVD 270551Z 35019G27KT 7SM -RA BKN016 OVC023 01/M01 A2968 RMK AO2 PK WND 36029/0504 UPB0457E01 SLP052 P0000 60013 T00111006 10039 20011 53016
Loading
Personal Weather Stations






























Interactive Weather Map New forecast layout! Learn more

10-Day Weather Forecast

Advertisements
Track Severe Weather on mobile